sensor_id;sensor_type;location;lat;lon;timestamp;pressure;altitude;pressure_sealevel;temperature;humidity
49342;BME280;35210;41.606;-87.602;2022-12-13T00:01:42;100506.47;;;6.09;61.37
49342;BME280;35210;41.606;-87.602;2022-12-13T00:04:10;100512.44;;;6.12;61.42
49342;BME280;35210;41.606;-87.602;2022-12-13T00:06:38;100517.75;;;6.11;60.63
49342;BME280;35210;41.606;-87.602;2022-12-13T00:09:06;100514.75;;;6.20;60.40
49342;BME280;35210;41.606;-87.602;2022-12-13T00:11:35;100513.78;;;6.01;61.71
49342;BME280;35210;41.606;-87.602;2022-12-13T00:14:03;100519.03;;;6.01;61.70
49342;BME280;35210;41.606;-87.602;2022-12-13T00:16:33;100521.25;;;5.68;62.74
49342;BME280;35210;41.606;-87.602;2022-12-13T00:19:01;100534.31;;;5.91;61.73
49342;BME280;35210;41.606;-87.602;2022-12-13T00:21:31;100529.28;;;6.07;61.01
49342;BME280;35210;41.606;-87.602;2022-12-13T00:24:00;100529.66;;;5.98;61.37
49342;BME280;35210;41.606;-87.602;2022-12-13T00:26:30;100533.13;;;5.98;60.72
49342;BME280;35210;41.606;-87.602;2022-12-13T00:28:59;100532.19;;;5.99;60.87
49342;BME280;35210;41.606;-87.602;2022-12-13T00:31:28;100533.59;;;6.08;61.44
49342;BME280;35210;41.606;-87.602;2022-12-13T00:33:58;100538.41;;;6.18;61.35
49342;BME280;35210;41.606;-87.602;2022-12-13T00:36:27;100544.19;;;6.26;60.68
49342;BME280;35210;41.606;-87.602;2022-12-13T00:38:57;100542.28;;;6.30;60.74
49342;BME280;35210;41.606;-87.602;2022-12-13T00:41:31;100548.78;;;6.00;61.63
49342;BME280;35210;41.606;-87.602;2022-12-13T00:44:00;100553.00;;;6.04;61.95
49342;BME280;35210;41.606;-87.602;2022-12-13T00:46:28;100551.94;;;6.08;61.71
49342;BME280;35210;41.606;-87.602;2022-12-13T00:48:59;100555.06;;;6.17;60.81
49342;BME280;35210;41.606;-87.602;2022-12-13T00:51:29;100562.22;;;6.34;60.01
49342;BME280;35210;41.606;-87.602;2022-12-13T00:54:00;100564.63;;;6.18;60.18
49342;BME280;35210;41.606;-87.602;2022-12-13T00:56:30;100571.72;;;6.16;60.55
49342;BME280;35210;41.606;-87.602;2022-12-13T00:58:59;100564.56;;;6.20;60.56
49342;BME280;35210;41.606;-87.602;2022-12-13T01:01:29;100569.63;;;6.03;60.65
49342;BME280;35210;41.606;-87.602;2022-12-13T01:04:01;100574.50;;;6.12;60.98
49342;BME280;35210;41.606;-87.602;2022-12-13T01:06:34;100569.16;;;6.15;60.31
49342;BME280;35210;41.606;-87.602;2022-12-13T01:09:04;100568.78;;;6.24;59.85
49342;BME280;35210;41.606;-87.602;2022-12-13T01:11:32;100560.84;;;6.04;60.55
49342;BME280;35210;41.606;-87.602;2022-12-13T01:14:01;100560.63;;;6.10;60.78
49342;BME280;35210;41.606;-87.602;2022-12-13T01:16:29;100562.31;;;6.11;60.57
49342;BME280;35210;41.606;-87.602;2022-12-13T01:18:57;100556.94;;;6.14;60.65
49342;BME280;35210;41.606;-87.602;2022-12-13T01:21:27;100561.97;;;5.98;60.72
49342;BME280;35210;41.606;-87.602;2022-12-13T01:23:59;100566.22;;;6.01;61.23
49342;BME280;35210;41.606;-87.602;2022-12-13T01:26:28;100549.34;;;6.08;61.00
49342;BME280;35210;41.606;-87.602;2022-12-13T01:28:57;100564.63;;;5.97;60.35
49342;BME280;35210;41.606;-87.602;2022-12-13T01:31:25;100563.22;;;5.89;61.29
49342;BME280;35210;41.606;-87.602;2022-12-13T01:33:54;100553.97;;;5.79;60.72
49342;BME280;35210;41.606;-87.602;2022-12-13T01:36:23;100563.25;;;5.88;61.07
49342;BME280;35210;41.606;-87.602;2022-12-13T01:38:54;100563.41;;;5.83;61.74
49342;BME280;35210;41.606;-87.602;2022-12-13T01:41:23;100554.00;;;5.56;63.13
49342;BME280;35210;41.606;-87.602;2022-12-13T01:43:57;100558.09;;;5.63;62.20
49342;BME280;35210;41.606;-87.602;2022-12-13T01:46:29;100554.28;;;5.72;62.37
49342;BME280;35210;41.606;-87.602;2022-12-13T01:49:02;100549.41;;;5.84;61.64
49342;BME280;35210;41.606;-87.602;2022-12-13T01:51:35;100557.38;;;5.81;62.04
49342;BME280;35210;41.606;-87.602;2022-12-13T01:54:07;100558.28;;;5.80;61.93
49342;BME280;35210;41.606;-87.602;2022-12-13T01:56:41;100562.53;;;5.61;62.59
49342;BME280;35210;41.606;-87.602;2022-12-13T01:59:14;100552.63;;;5.69;62.38
49342;BME280;35210;41.606;-87.602;2022-12-13T02:01:47;100545.84;;;5.64;62.95
49342;BME280;35210;41.606;-87.602;2022-12-13T02:04:16;100550.25;;;5.63;62.78
49342;BME280;35210;41.606;-87.602;2022-12-13T02:06:49;100539.88;;;5.60;62.89
49342;BME280;35210;41.606;-87.602;2022-12-13T02:09:20;100548.34;;;5.67;62.47
49342;BME280;35210;41.606;-87.602;2022-12-13T02:11:50;100548.72;;;5.57;62.49
49342;BME280;35210;41.606;-87.602;2022-12-13T02:14:18;100544.94;;;5.65;63.29
49342;BME280;35210;41.606;-87.602;2022-12-13T02:16:52;100548.28;;;5.68;62.89
49342;BME280;35210;41.606;-87.602;2022-12-13T02:22:53;100544.63;;;5.72;63.03
49342;BME280;35210;41.606;-87.602;2022-12-13T02:25:49;100546.34;;;5.73;63.42
49342;BME280;35210;41.606;-87.602;2022-12-13T02:28:40;100548.06;;;5.74;62.43
49342;BME280;35210;41.606;-87.602;2022-12-13T02:31:17;100550.13;;;5.66;63.18
49342;BME280;35210;41.606;-87.602;2022-12-13T02:33:53;100550.69;;;5.74;65.71
49342;BME280;35210;41.606;-87.602;2022-12-13T02:36:29;100553.28;;;5.74;64.15
49342;BME280;35210;41.606;-87.602;2022-12-13T02:39:04;100548.97;;;5.73;63.43
49342;BME280;35210;41.606;-87.602;2022-12-13T02:41:37;100532.44;;;5.71;63.75
49342;BME280;35210;41.606;-87.602;2022-12-13T02:44:10;100535.75;;;5.76;63.78
49342;BME280;35210;41.606;-87.602;2022-12-13T02:46:47;100543.19;;;5.87;63.08
49342;BME280;35210;41.606;-87.602;2022-12-13T02:49:19;100543.78;;;5.72;62.54
49342;BME280;35210;41.606;-87.602;2022-12-13T02:51:51;100535.19;;;5.68;63.25
49342;BME280;35210;41.606;-87.602;2022-12-13T02:54:20;100537.19;;;5.61;63.74
49342;BME280;35210;41.606;-87.602;2022-12-13T02:56:53;100536.22;;;5.64;63.49
49342;BME280;35210;41.606;-87.602;2022-12-13T02:59:28;100542.72;;;5.54;63.60
49342;BME280;35210;41.606;-87.602;2022-12-13T03:02:10;100547.00;;;5.56;64.50
49342;BME280;35210;41.606;-87.602;2022-12-13T03:04:52;100542.44;;;5.61;63.74
49342;BME280;35210;41.606;-87.602;2022-12-13T03:07:45;100524.81;;;5.43;64.17
49342;BME280;35210;41.606;-87.602;2022-12-13T03:10:21;100524.94;;;5.40;64.80
49342;BME280;35210;41.606;-87.602;2022-12-13T03:12:53;100522.78;;;5.28;64.26
49342;BME280;35210;41.606;-87.602;2022-12-13T03:15:44;100519.91;;;5.34;65.10
49342;BME280;35210;41.606;-87.602;2022-12-13T03:18:18;100512.44;;;5.47;64.69
49342;BME280;35210;41.606;-87.602;2022-12-13T03:20:49;100505.84;;;5.37;64.62
49342;BME280;35210;41.606;-87.602;2022-12-13T03:23:19;100506.81;;;5.34;64.65
49342;BME280;35210;41.606;-87.602;2022-12-13T03:25:51;100501.28;;;5.42;64.85
49342;BME280;35210;41.606;-87.602;2022-12-13T03:28:20;100497.19;;;5.35;64.89
49342;BME280;35210;41.606;-87.602;2022-12-13T03:30:49;100506.47;;;5.43;64.65
49342;BME280;35210;41.606;-87.602;2022-12-13T03:33:18;100487.16;;;5.46;65.68
49342;BME280;35210;41.606;-87.602;2022-12-13T03:35:48;100486.94;;;5.52;64.79
49342;BME280;35210;41.606;-87.602;2022-12-13T03:38:16;100497.59;;;5.47;64.67
49342;BME280;35210;41.606;-87.602;2022-12-13T03:40:44;100478.03;;;5.56;64.51
49342;BME280;35210;41.606;-87.602;2022-12-13T03:43:13;100467.72;;;5.51;65.25
49342;BME280;35210;41.606;-87.602;2022-12-13T03:45:41;100474.91;;;5.46;65.06
49342;BME280;35210;41.606;-87.602;2022-12-13T03:48:09;100479.03;;;5.30;65.52
49342;BME280;35210;41.606;-87.602;2022-12-13T03:50:39;100474.78;;;5.27;65.53
49342;BME280;35210;41.606;-87.602;2022-12-13T03:53:07;100477.78;;;5.18;66.31
49342;BME280;35210;41.606;-87.602;2022-12-13T03:55:35;100484.97;;;4.90;67.75
49342;BME280;35210;41.606;-87.602;2022-12-13T03:58:03;100481.88;;;5.02;67.16
49342;BME280;35210;41.606;-87.602;2022-12-13T04:00:31;100467.94;;;5.02;66.87
49342;BME280;35210;41.606;-87.602;2022-12-13T04:02:59;100463.41;;;5.07;66.88
49342;BME280;35210;41.606;-87.602;2022-12-13T04:05:27;100464.69;;;5.18;66.89
49342;BME280;35210;41.606;-87.602;2022-12-13T04:07:57;100471.06;;;5.11;67.33
49342;BME280;35210;41.606;-87.602;2022-12-13T04:10:26;100456.28;;;5.10;66.17
49342;BME280;35210;41.606;-87.602;2022-12-13T04:12:54;100456.63;;;5.01;67.49
49342;BME280;35210;41.606;-87.602;2022-12-13T04:15:36;100454.28;;;4.93;67.20
49342;BME280;35210;41.606;-87.602;2022-12-13T04:18:04;100455.03;;;4.97;67.58
49342;BME280;35210;41.606;-87.602;2022-12-13T04:20:32;100449.63;;;5.02;66.95
49342;BME280;35210;41.606;-87.602;2022-12-13T04:23:02;100449.34;;;5.09;66.62
49342;BME280;35210;41.606;-87.602;2022-12-13T04:25:30;100444.84;;;5.13;66.06
49342;BME280;35210;41.606;-87.602;2022-12-13T04:27:58;100450.19;;;5.10;65.94
49342;BME280;35210;41.606;-87.602;2022-12-13T04:30:27;100444.03;;;5.11;66.40
49342;BME280;35210;41.606;-87.602;2022-12-13T04:32:57;100453.78;;;4.84;66.52
49342;BME280;35210;41.606;-87.602;2022-12-13T04:35:26;100458.56;;;4.96;66.66
49342;BME280;35210;41.606;-87.602;2022-12-13T04:37:54;100484.84;;;4.93;67.62
49342;BME280;35210;41.606;-87.602;2022-12-13T04:40:24;100488.59;;;4.86;67.37
49342;BME280;35210;41.606;-87.602;2022-12-13T04:42:52;100475.69;;;4.81;66.94
49342;BME280;35210;41.606;-87.602;2022-12-13T04:45:21;100461.88;;;4.78;67.76
49342;BME280;35210;41.606;-87.602;2022-12-13T04:47:49;100467.66;;;4.86;67.66
49342;BME280;35210;41.606;-87.602;2022-12-13T04:50:18;100468.75;;;4.80;68.48
49342;BME280;35210;41.606;-87.602;2022-12-13T04:52:46;100477.28;;;4.85;68.34
49342;BME280;35210;41.606;-87.602;2022-12-13T04:55:14;100474.84;;;4.81;67.57
49342;BME280;35210;41.606;-87.602;2022-12-13T04:57:43;100479.84;;;4.87;68.12
49342;BME280;35210;41.606;-87.602;2022-12-13T05:00:12;100490.66;;;4.78;68.15
49342;BME280;35210;41.606;-87.602;2022-12-13T05:02:41;100483.19;;;4.67;68.71
49342;BME280;35210;41.606;-87.602;2022-12-13T05:05:10;100494.72;;;4.61;69.57
49342;BME280;35210;41.606;-87.602;2022-12-13T05:07:38;100494.66;;;4.63;69.02
49342;BME280;35210;41.606;-87.602;2022-12-13T05:10:08;100499.94;;;4.61;68.73
49342;BME280;35210;41.606;-87.602;2022-12-13T05:12:36;100504.66;;;4.52;68.94
49342;BME280;35210;41.606;-87.602;2022-12-13T05:15:07;100504.38;;;4.59;69.08
49342;BME280;35210;41.606;-87.602;2022-12-13T05:17:36;100507.91;;;4.58;69.67
49342;BME280;35210;41.606;-87.602;2022-12-13T05:20:04;100498.81;;;4.45;69.95
49342;BME280;35210;41.606;-87.602;2022-12-13T05:22:33;100501.94;;;4.55;69.41
49342;BME280;35210;41.606;-87.602;2022-12-13T05:25:03;100508.91;;;4.54;69.51
49342;BME280;35210;41.606;-87.602;2022-12-13T05:27:32;100498.91;;;4.42;70.60
49342;BME280;35210;41.606;-87.602;2022-12-13T05:30:01;100513.31;;;4.29;70.25
49342;BME280;35210;41.606;-87.602;2022-12-13T05:32:32;100518.50;;;4.31;70.32
49342;BME280;35210;41.606;-87.602;2022-12-13T05:35:02;100502.44;;;4.41;70.50
49342;BME280;35210;41.606;-87.602;2022-12-13T05:37:30;100501.25;;;4.50;70.47
49342;BME280;35210;41.606;-87.602;2022-12-13T05:39:58;100512.16;;;4.38;70.31
49342;BME280;35210;41.606;-87.602;2022-12-13T05:42:26;100527.31;;;4.28;70.63
49342;BME280;35210;41.606;-87.602;2022-12-13T05:44:54;100510.66;;;4.31;70.59
49342;BME280;35210;41.606;-87.602;2022-12-13T05:47:22;100503.66;;;4.31;70.25
49342;BME280;35210;41.606;-87.602;2022-12-13T05:49:52;100498.69;;;4.23;70.29
49342;BME280;35210;41.606;-87.602;2022-12-13T05:52:21;100491.81;;;4.21;71.50
49342;BME280;35210;41.606;-87.602;2022-12-13T05:54:53;100489.06;;;4.49;70.11
49342;BME280;35210;41.606;-87.602;2022-12-13T05:57:22;100484.03;;;4.44;70.26
49342;BME280;35210;41.606;-87.602;2022-12-13T05:59:50;100476.03;;;4.47;70.47
49342;BME280;35210;41.606;-87.602;2022-12-13T06:02:19;100468.06;;;4.27;71.17
49342;BME280;35210;41.606;-87.602;2022-12-13T06:04:47;100472.03;;;4.39;71.22
49342;BME280;35210;41.606;-87.602;2022-12-13T06:07:17;100471.44;;;4.31;70.79
49342;BME280;35210;41.606;-87.602;2022-12-13T06:09:46;100457.25;;;4.38;71.04
49342;BME280;35210;41.606;-87.602;2022-12-13T06:12:14;100449.59;;;4.32;71.23
49342;BME280;35210;41.606;-87.602;2022-12-13T06:14:43;100443.63;;;4.28;71.55
49342;BME280;35210;41.606;-87.602;2022-12-13T06:17:11;100456.72;;;4.28;71.13
49342;BME280;35210;41.606;-87.602;2022-12-13T06:19:39;100426.72;;;4.38;69.82
49342;BME280;35210;41.606;-87.602;2022-12-13T06:22:07;100428.84;;;4.27;71.30
49342;BME280;35210;41.606;-87.602;2022-12-13T06:24:37;100422.81;;;4.25;71.47
49342;BME280;35210;41.606;-87.602;2022-12-13T06:27:06;100425.44;;;4.25;71.34
49342;BME280;35210;41.606;-87.602;2022-12-13T06:29:34;100412.72;;;4.39;70.22
49342;BME280;35210;41.606;-87.602;2022-12-13T06:32:03;100408.78;;;4.27;71.11
49342;BME280;35210;41.606;-87.602;2022-12-13T06:34:33;100406.59;;;4.40;70.58
49342;BME280;35210;41.606;-87.602;2022-12-13T06:37:02;100390.88;;;4.17;71.48
49342;BME280;35210;41.606;-87.602;2022-12-13T06:39:30;100390.72;;;4.21;70.94
49342;BME280;35210;41.606;-87.602;2022-12-13T06:42:00;100396.72;;;4.23;71.49
49342;BME280;35210;41.606;-87.602;2022-12-13T06:44:31;100392.78;;;4.12;71.82
49342;BME280;35210;41.606;-87.602;2022-12-13T06:46:59;100387.84;;;4.04;71.58
49342;BME280;35210;41.606;-87.602;2022-12-13T06:49:27;100386.78;;;4.10;71.90
49342;BME280;35210;41.606;-87.602;2022-12-13T06:51:55;100402.03;;;3.97;72.56
49342;BME280;35210;41.606;-87.602;2022-12-13T06:54:24;100400.75;;;4.09;72.01
49342;BME280;35210;41.606;-87.602;2022-12-13T06:56:52;100401.59;;;3.84;72.45
49342;BME280;35210;41.606;-87.602;2022-12-13T06:59:22;100404.09;;;3.87;72.73
49342;BME280;35210;41.606;-87.602;2022-12-13T07:01:50;100402.66;;;3.79;72.73
49342;BME280;35210;41.606;-87.602;2022-12-13T07:04:19;100399.56;;;3.68;72.80
49342;BME280;35210;41.606;-87.602;2022-12-13T07:06:47;100396.56;;;3.53;73.46
49342;BME280;35210;41.606;-87.602;2022-12-13T07:09:15;100403.28;;;3.60;73.94
49342;BME280;35210;41.606;-87.602;2022-12-13T07:11:43;100403.50;;;3.54;74.03
49342;BME280;35210;41.606;-87.602;2022-12-13T07:14:11;100404.44;;;3.52;73.13
49342;BME280;35210;41.606;-87.602;2022-12-13T07:16:41;100412.69;;;3.66;73.79
49342;BME280;35210;41.606;-87.602;2022-12-13T07:19:10;100416.59;;;3.53;73.70
49342;BME280;35210;41.606;-87.602;2022-12-13T07:21:38;100414.22;;;3.45;73.91
49342;BME280;35210;41.606;-87.602;2022-12-13T07:24:07;100412.03;;;3.59;73.94
49342;BME280;35210;41.606;-87.602;2022-12-13T07:26:35;100410.97;;;3.65;72.94
49342;BME280;35210;41.606;-87.602;2022-12-13T07:29:03;100405.94;;;3.59;73.03
49342;BME280;35210;41.606;-87.602;2022-12-13T07:31:33;100401.97;;;3.47;74.46
49342;BME280;35210;41.606;-87.602;2022-12-13T07:34:04;100406.16;;;3.53;72.19
49342;BME280;35210;41.606;-87.602;2022-12-13T07:36:32;100425.53;;;3.46;72.42
49342;BME280;35210;41.606;-87.602;2022-12-13T07:39:00;100430.44;;;3.28;71.02
49342;BME280;35210;41.606;-87.602;2022-12-13T07:41:28;100426.97;;;3.28;71.31
49342;BME280;35210;41.606;-87.602;2022-12-13T07:43:56;100416.44;;;3.31;71.32
49342;BME280;35210;41.606;-87.602;2022-12-13T07:46:24;100435.47;;;3.35;70.95
49342;BME280;35210;41.606;-87.602;2022-12-13T07:48:53;100431.28;;;3.29;71.45
49342;BME280;35210;41.606;-87.602;2022-12-13T07:51:23;100429.13;;;3.42;71.08
49342;BME280;35210;41.606;-87.602;2022-12-13T07:53:52;100437.59;;;3.50;71.11
49342;BME280;35210;41.606;-87.602;2022-12-13T07:56:20;100448.06;;;3.48;71.41
49342;BME280;35210;41.606;-87.602;2022-12-13T07:58:48;100446.81;;;3.34;71.33
49342;BME280;35210;41.606;-87.602;2022-12-13T08:01:16;100449.75;;;3.51;70.87
49342;BME280;35210;41.606;-87.602;2022-12-13T08:03:46;100445.03;;;3.62;70.56
49342;BME280;35210;41.606;-87.602;2022-12-13T08:06:15;100433.88;;;3.57;70.67
49342;BME280;35210;41.606;-87.602;2022-12-13T08:08:46;100445.72;;;3.41;70.98
49342;BME280;35210;41.606;-87.602;2022-12-13T08:11:16;100450.16;;;3.37;71.34
49342;BME280;35210;41.606;-87.602;2022-12-13T08:13:44;100448.84;;;3.52;70.55
49342;BME280;35210;41.606;-87.602;2022-12-13T08:16:13;100451.53;;;3.49;70.86
49342;BME280;35210;41.606;-87.602;2022-12-13T08:18:43;100448.97;;;3.47;70.59
49342;BME280;35210;41.606;-87.602;2022-12-13T08:21:12;100442.81;;;3.50;70.22
49342;BME280;35210;41.606;-87.602;2022-12-13T08:23:41;100430.81;;;3.44;71.31
49342;BME280;35210;41.606;-87.602;2022-12-13T08:26:11;100425.53;;;3.46;70.34
49342;BME280;35210;41.606;-87.602;2022-12-13T08:28:39;100427.19;;;3.48;70.96
49342;BME280;35210;41.606;-87.602;2022-12-13T08:31:09;100417.59;;;3.49;70.95
49342;BME280;35210;41.606;-87.602;2022-12-13T08:33:38;100419.09;;;3.56;70.75
49342;BME280;35210;41.606;-87.602;2022-12-13T08:36:09;100429.91;;;3.45;71.52
49342;BME280;35210;41.606;-87.602;2022-12-13T08:38:37;100415.88;;;3.48;71.34
49342;BME280;35210;41.606;-87.602;2022-12-13T08:41:05;100417.56;;;3.50;70.85
49342;BME280;35210;41.606;-87.602;2022-12-13T08:43:35;100409.72;;;3.50;70.87
49342;BME280;35210;41.606;-87.602;2022-12-13T08:46:04;100406.34;;;3.47;70.90
49342;BME280;35210;41.606;-87.602;2022-12-13T08:48:33;100408.16;;;3.45;71.32
49342;BME280;35210;41.606;-87.602;2022-12-13T08:51:02;100408.66;;;3.29;71.93
49342;BME280;35210;41.606;-87.602;2022-12-13T08:53:30;100413.63;;;3.37;71.98
49342;BME280;35210;41.606;-87.602;2022-12-13T08:56:02;100406.75;;;3.35;72.30
49342;BME280;35210;41.606;-87.602;2022-12-13T08:58:30;100405.44;;;3.48;72.54
49342;BME280;35210;41.606;-87.602;2022-12-13T09:01:00;100392.59;;;3.42;72.86
49342;BME280;35210;41.606;-87.602;2022-12-13T09:03:30;100396.50;;;3.55;72.14
49342;BME280;35210;41.606;-87.602;2022-12-13T09:06:06;100400.53;;;3.65;70.71
49342;BME280;35210;41.606;-87.602;2022-12-13T09:08:34;100396.41;;;3.58;71.33
49342;BME280;35210;41.606;-87.602;2022-12-13T09:11:02;100407.66;;;3.60;71.58
49342;BME280;35210;41.606;-87.602;2022-12-13T09:13:32;100420.72;;;3.60;71.67
49342;BME280;35210;41.606;-87.602;2022-12-13T09:16:06;100409.47;;;3.58;72.56
49342;BME280;35210;41.606;-87.602;2022-12-13T09:18:35;100417.94;;;3.65;72.05
49342;BME280;35210;41.606;-87.602;2022-12-13T09:21:07;100419.63;;;3.67;71.66
49342;BME280;35210;41.606;-87.602;2022-12-13T09:23:35;100418.72;;;3.68;72.09
49342;BME280;35210;41.606;-87.602;2022-12-13T09:26:04;100412.56;;;3.69;71.77
49342;BME280;35210;41.606;-87.602;2022-12-13T09:28:34;100413.84;;;3.82;71.98
49342;BME280;35210;41.606;-87.602;2022-12-13T09:31:08;100421.22;;;3.71;72.30
49342;BME280;35210;41.606;-87.602;2022-12-13T09:33:38;100415.56;;;3.83;72.61
49342;BME280;35210;41.606;-87.602;2022-12-13T09:36:09;100428.66;;;3.82;71.54
49342;BME280;35210;41.606;-87.602;2022-12-13T09:38:37;100440.19;;;3.76;71.78
49342;BME280;35210;41.606;-87.602;2022-12-13T09:41:14;100434.75;;;3.82;72.96
49342;BME280;35210;41.606;-87.602;2022-12-13T09:43:47;100433.63;;;3.89;72.45
49342;BME280;35210;41.606;-87.602;2022-12-13T09:46:28;100425.69;;;3.92;71.72
49342;BME280;35210;41.606;-87.602;2022-12-13T09:48:57;100409.63;;;3.78;72.38
49342;BME280;35210;41.606;-87.602;2022-12-13T09:51:28;100418.81;;;3.65;73.74
49342;BME280;35210;41.606;-87.602;2022-12-13T09:53:57;100420.88;;;3.55;74.09
49342;BME280;35210;41.606;-87.602;2022-12-13T09:56:26;100421.41;;;3.65;73.54
49342;BME280;35210;41.606;-87.602;2022-12-13T09:58:55;100421.94;;;3.75;73.54
49342;BME280;35210;41.606;-87.602;2022-12-13T10:01:26;100417.75;;;3.71;73.41
49342;BME280;35210;41.606;-87.602;2022-12-13T10:03:55;100421.13;;;3.73;73.31
49342;BME280;35210;41.606;-87.602;2022-12-13T10:06:28;100419.97;;;3.81;72.99
49342;BME280;35210;41.606;-87.602;2022-12-13T10:09:00;100406.81;;;3.84;73.23
49342;BME280;35210;41.606;-87.602;2022-12-13T10:11:30;100406.06;;;3.81;72.70
49342;BME280;35210;41.606;-87.602;2022-12-13T10:14:01;100399.38;;;3.72;74.43
49342;BME280;35210;41.606;-87.602;2022-12-13T10:16:41;100398.31;;;3.78;74.16
49342;BME280;35210;41.606;-87.602;2022-12-13T10:19:16;100412.09;;;3.83;74.00
49342;BME280;35210;41.606;-87.602;2022-12-13T10:21:47;100413.84;;;3.82;73.31
49342;BME280;35210;41.606;-87.602;2022-12-13T10:24:19;100410.13;;;3.65;73.40
49342;BME280;35210;41.606;-87.602;2022-12-13T10:26:50;100398.28;;;3.54;74.21
49342;BME280;35210;41.606;-87.602;2022-12-13T10:29:20;100393.78;;;3.58;74.42
49342;BME280;35210;41.606;-87.602;2022-12-13T10:31:50;100389.59;;;3.79;74.02
49342;BME280;35210;41.606;-87.602;2022-12-13T10:34:22;100382.38;;;3.85;73.53
49342;BME280;35210;41.606;-87.602;2022-12-13T10:36:52;100377.16;;;3.60;74.43
49342;BME280;35210;41.606;-87.602;2022-12-13T10:39:36;100380.19;;;3.73;72.98
49342;BME280;35210;41.606;-87.602;2022-12-13T10:42:09;100381.00;;;3.75;73.39
49342;BME280;35210;41.606;-87.602;2022-12-13T10:44:39;100376.31;;;3.60;73.93
49342;BME280;35210;41.606;-87.602;2022-12-13T10:47:19;100373.84;;;3.55;75.01
49342;BME280;35210;41.606;-87.602;2022-12-13T10:49:50;100383.16;;;3.64;74.58
49342;BME280;35210;41.606;-87.602;2022-12-13T10:52:25;100375.38;;;3.62;74.28
49342;BME280;35210;41.606;-87.602;2022-12-13T10:54:55;100373.91;;;3.79;74.62
49342;BME280;35210;41.606;-87.602;2022-12-13T10:57:24;100366.13;;;3.77;74.28
49342;BME280;35210;41.606;-87.602;2022-12-13T10:59:53;100364.69;;;3.93;73.62
49342;BME280;35210;41.606;-87.602;2022-12-13T11:02:32;100365.06;;;3.83;73.67
49342;BME280;35210;41.606;-87.602;2022-12-13T11:05:22;100367.28;;;3.70;73.96
49342;BME280;35210;41.606;-87.602;2022-12-13T11:07:50;100366.22;;;3.74;73.26
49342;BME280;35210;41.606;-87.602;2022-12-13T11:10:24;100377.03;;;3.65;73.82
49342;BME280;35210;41.606;-87.602;2022-12-13T11:12:58;100382.19;;;3.67;73.95
49342;BME280;35210;41.606;-87.602;2022-12-13T11:15:28;100389.16;;;3.66;73.72
49342;BME280;35210;41.606;-87.602;2022-12-13T11:18:01;100386.47;;;3.69;74.27
49342;BME280;35210;41.606;-87.602;2022-12-13T11:20:35;100381.00;;;3.75;73.75
49342;BME280;35210;41.606;-87.602;2022-12-13T11:23:06;100385.41;;;3.73;74.16
49342;BME280;35210;41.606;-87.602;2022-12-13T11:25:41;100389.13;;;3.68;73.51
49342;BME280;35210;41.606;-87.602;2022-12-13T11:28:22;100387.94;;;3.76;73.74
49342;BME280;35210;41.606;-87.602;2022-12-13T11:31:02;100392.19;;;3.79;73.82
49342;BME280;35210;41.606;-87.602;2022-12-13T11:33:44;100393.69;;;3.86;73.91
49342;BME280;35210;41.606;-87.602;2022-12-13T11:36:26;100389.22;;;3.89;72.90
49342;BME280;35210;41.606;-87.602;2022-12-13T11:39:08;100383.28;;;3.84;72.34
49342;BME280;35210;41.606;-87.602;2022-12-13T11:41:44;100380.25;;;3.72;73.14
49342;BME280;35210;41.606;-87.602;2022-12-13T11:44:18;100384.66;;;3.71;73.49
49342;BME280;35210;41.606;-87.602;2022-12-13T11:46:53;100381.34;;;3.66;74.28
49342;BME280;35210;41.606;-87.602;2022-12-13T11:49:32;100368.53;;;3.58;74.19
49342;BME280;35210;41.606;-87.602;2022-12-13T11:52:09;100368.69;;;3.54;74.42
49342;BME280;35210;41.606;-87.602;2022-12-13T11:54:47;100375.41;;;3.61;75.07
49342;BME280;35210;41.606;-87.602;2022-12-13T11:57:26;100375.47;;;3.59;74.75
49342;BME280;35210;41.606;-87.602;2022-12-13T12:00:04;100391.78;;;3.66;74.37
49342;BME280;35210;41.606;-87.602;2022-12-13T12:02:39;100396.91;;;3.69;74.24
49342;BME280;35210;41.606;-87.602;2022-12-13T12:05:21;100391.50;;;3.74;73.71
49342;BME280;35210;41.606;-87.602;2022-12-13T12:07:56;100382.56;;;3.81;73.63
49342;BME280;35210;41.606;-87.602;2022-12-13T12:10:31;100388.31;;;3.66;73.95
49342;BME280;35210;41.606;-87.602;2022-12-13T12:13:06;100402.22;;;3.66;74.33
49342;BME280;35210;41.606;-87.602;2022-12-13T12:15:44;100422.19;;;3.69;74.63
49342;BME280;35210;41.606;-87.602;2022-12-13T12:18:14;100419.31;;;3.75;74.66
49342;BME280;35210;41.606;-87.602;2022-12-13T12:20:53;100419.97;;;3.81;74.70
49342;BME280;35210;41.606;-87.602;2022-12-13T12:23:36;100413.53;;;3.67;74.62
49342;BME280;35210;41.606;-87.602;2022-12-13T12:26:10;100390.78;;;3.70;74.50
49342;BME280;35210;41.606;-87.602;2022-12-13T12:29:05;100379.19;;;3.77;74.33
49342;BME280;35210;41.606;-87.602;2022-12-13T12:31:44;100379.44;;;3.71;75.54
49342;BME280;35210;41.606;-87.602;2022-12-13T12:34:23;100377.28;;;3.82;74.46
49342;BME280;35210;41.606;-87.602;2022-12-13T12:37:06;100376.56;;;3.77;74.39
49342;BME280;35210;41.606;-87.602;2022-12-13T12:39:59;100379.28;;;3.74;74.42
49342;BME280;35210;41.606;-87.602;2022-12-13T12:42:45;100382.84;;;3.72;75.02
49342;BME280;35210;41.606;-87.602;2022-12-13T12:45:29;100378.19;;;3.81;75.20
49342;BME280;35210;41.606;-87.602;2022-12-13T12:48:11;100381.69;;;3.80;74.25
49342;BME280;35210;41.606;-87.602;2022-12-13T12:50:48;100385.81;;;3.62;75.02
49342;BME280;35210;41.606;-87.602;2022-12-13T12:53:36;100382.34;;;3.62;75.73
49342;BME280;35210;41.606;-87.602;2022-12-13T12:56:19;100365.63;;;3.68;75.81
49342;BME280;35210;41.606;-87.602;2022-12-13T12:58:56;100356.19;;;3.63;76.18
49342;BME280;35210;41.606;-87.602;2022-12-13T13:01:48;100349.09;;;3.67;76.23
49342;BME280;35210;41.606;-87.602;2022-12-13T13:04:21;100349.84;;;3.71;76.01
49342;BME280;35210;41.606;-87.602;2022-12-13T13:06:54;100352.66;;;3.65;76.18